Time;durP1;ratioP1;P1;durP2;ratioP2;P2;SDS_P1;SDS_P2;PMS_P1;PMS_P2;Temp;Humidity;BMP_temperature;BMP_pressure;BME280_temperature;BME280_humidity;BME280_pressure;Samples;Min_cycle;Max_cycle;Signal;HPM_P1;HPM_P2
2021/01/04 00:01:43;;;;;;;1.23;1.13;;;15.10;56.50;;;;;;5006951;28;20211;-55
2021/01/04 00:04:46;;;;;;;1.90;1.53;;;15.10;56.50;;;;;;4999208;28;20231;-55
2021/01/04 00:07:15;;;;;;;1.43;1.30;;;15.10;56.50;;;;;;4995438;28;20211;-55
2021/01/04 00:10:09;;;;;;;1.93;1.50;;;15.10;56.40;;;;;;4999331;28;20215;-55
2021/01/04 00:12:55;;;;;;;1.33;1.23;;;15.10;56.40;;;;;;4996971;28;20932;-55
2021/01/04 00:15:36;;;;;;;1.23;1.07;;;15.10;56.40;;;;;;5010461;28;20230;-55
2021/01/04 00:18:35;;;;;;;1.73;1.57;;;15.10;56.40;;;;;;4994067;28;20215;-55
2021/01/04 00:21:07;;;;;;;1.30;1.20;;;15.10;56.40;;;;;;5007667;28;20225;-55
2021/01/04 00:23:52;;;;;;;1.40;1.30;;;15.10;56.40;;;;;;5000374;28;20195;-55
2021/01/04 00:26:33;;;;;;;1.30;1.20;;;15.10;56.40;;;;;;5005030;28;20247;-55
2021/01/04 00:28:59;;;;;;;1.90;1.50;;;15.10;56.40;;;;;;4994883;28;20194;-55
2021/01/04 00:31:30;;;;;;;1.20;1.10;;;15.10;56.40;;;;;;5003805;28;20206;-55
2021/01/04 00:34:05;;;;;;;1.40;1.30;;;15.10;56.40;;;;;;4998422;28;20207;-55
2021/01/04 00:36:56;;;;;;;1.27;1.13;;;15.10;56.50;;;;;;4999455;28;20211;-55
2021/01/04 00:39:42;;;;;;;1.37;1.20;;;15.10;56.40;;;;;;4984932;28;20215;-55
2021/01/04 00:42:37;;;;;;;1.50;1.40;;;15.10;56.40;;;;;;5004510;28;20204;-55
2021/01/04 00:45:26;;;;;;;1.40;1.30;;;15.10;56.40;;;;;;5000019;28;20349;-55
2021/01/04 00:48:26;;;;;;;1.40;1.30;;;15.10;56.30;;;;;;4998274;28;20274;-55
2021/01/04 00:51:30;;;;;;;1.70;1.40;;;15.10;56.40;;;;;;5000632;28;20220;-55
2021/01/04 00:53:58;;;;;;;1.37;1.27;;;15.00;56.40;;;;;;4999913;28;20215;-55
2021/01/04 00:56:39;;;;;;;1.73;1.40;;;15.00;56.40;;;;;;5001502;28;20557;-55
2021/01/04 00:59:27;;;;;;;1.33;1.23;;;15.10;56.40;;;;;;5006914;28;20214;-55
2021/01/04 01:02:22;;;;;;;1.50;1.27;;;15.00;56.40;;;;;;4998304;28;20246;-55
2021/01/04 01:05:44;;;;;;;1.83;1.63;;;15.00;56.30;;;;;;5000130;28;20722;-55
2021/01/04 01:08:10;;;;;;;2.00;1.73;;;15.10;56.40;;;;;;4964051;28;20734;-55
2021/01/04 01:10:48;;;;;;;1.17;1.00;;;15.10;56.30;;;;;;5000024;28;20215;-55
2021/01/04 01:13:48;;;;;;;1.70;1.50;;;15.10;56.30;;;;;;5005679;28;20234;-55
2021/01/04 01:16:17;;;;;;;1.70;1.60;;;15.00;56.20;;;;;;4996998;28;20211;-55
2021/01/04 01:19:06;;;;;;;1.77;1.40;;;15.00;56.30;;;;;;5002423;28;20206;-55
2021/01/04 01:21:34;;;;;;;1.70;1.60;;;15.10;56.40;;;;;;4998840;28;20219;-55
2021/01/04 01:24:01;;;;;;;1.67;1.50;;;15.00;56.20;;;;;;5007418;28;20199;-55
2021/01/04 01:27:02;;;;;;;1.83;1.73;;;15.00;56.30;;;;;;4996729;28;20898;-55
2021/01/04 01:30:19;;;;;;;1.90;1.60;;;15.00;56.30;;;;;;5005483;28;20200;-55
2021/01/04 01:32:48;;;;;;;1.50;1.40;;;15.10;56.30;;;;;;4914504;29;20309;-54
2021/01/04 01:35:32;;;;;;;1.60;1.50;;;15.00;56.30;;;;;;4993296;28;20208;-55
2021/01/04 01:38:27;;;;;;;1.20;1.10;;;15.00;56.30;;;;;;4996990;28;20203;-55
2021/01/04 01:41:31;;;;;;;1.43;1.30;;;15.00;56.30;;;;;;5013496;28;20570;-55
2021/01/04 01:44:20;;;;;;;2.00;1.50;;;15.00;56.30;;;;;;5004048;28;20196;-55
2021/01/04 01:47:09;;;;;;;1.30;1.20;;;15.00;57.00;;;;;;4991200;28;20210;-55
2021/01/04 01:50:00;;;;;;;1.63;1.40;;;15.00;56.30;;;;;;5005003;28;20764;-55
2021/01/04 01:53:01;;;;;;;1.50;1.30;;;15.00;56.40;;;;;;4997128;28;20212;-54
2021/01/04 01:55:36;;;;;;;1.50;1.37;;;15.00;56.40;;;;;;5008087;28;20207;-55
2021/01/04 01:58:08;;;;;;;1.70;1.60;;;15.00;56.40;;;;;;4997180;28;20591;-55
2021/01/04 02:01:04;;;;;;;1.60;1.37;;;15.00;56.40;;;;;;5006941;28;20219;-55
2021/01/04 02:03:42;;;;;;;1.70;1.50;;;15.00;56.40;;;;;;4997188;28;20224;-55
2021/01/04 02:06:16;;;;;;;1.40;1.30;;;15.00;56.40;;;;;;5006512;28;20569;-55
2021/01/04 02:08:52;;;;;;;1.30;1.20;;;15.00;56.50;;;;;;5002158;28;20196;-55
2021/01/04 02:11:33;;;;;;;1.77;1.67;;;15.00;56.40;;;;;;5006868;28;20211;-55
2021/01/04 02:14:10;;;;;;;1.70;1.30;;;15.00;56.40;;;;;;5001894;28;20234;-55
2021/01/04 02:17:01;;;;;;;1.50;1.40;;;15.00;56.40;;;;;;5009459;28;20199;-55
2021/01/04 02:19:37;;;;;;;2.00;1.43;;;15.00;56.50;;;;;;5004285;28;20231;-55
2021/01/04 02:22:33;;;;;;;1.47;1.33;;;15.00;56.40;;;;;;5006942;28;20225;-55
2021/01/04 02:24:59;;;;;;;1.67;1.43;;;15.00;56.40;;;;;;5002802;28;20196;-55
2021/01/04 02:27:35;;;;;;;1.50;1.30;;;15.00;56.50;;;;;;5010148;28;20295;-55
2021/01/04 02:30:03;;;;;;;1.70;1.50;;;15.00;56.50;;;;;;5002804;28;20759;-55
2021/01/04 02:32:29;;;;;;;1.50;1.40;;;15.00;56.50;;;;;;5009948;28;20775;-55
2021/01/04 02:34:57;;;;;;;1.57;1.47;;;15.00;56.50;;;;;;5003926;28;20196;-55
2021/01/04 02:37:26;;;;;;;2.90;1.40;;;15.00;56.40;;;;;;5009797;28;20225;-55
2021/01/04 02:39:59;;;;;;;1.47;1.30;;;15.00;56.50;;;;;;4985513;28;20216;-55
2021/01/04 02:42:30;;;;;;;1.50;1.40;;;15.00;56.50;;;;;;5002212;28;20577;-55
2021/01/04 02:44:58;;;;;;;1.60;1.20;;;15.00;56.40;;;;;;4994256;28;20591;-55
2021/01/04 02:47:38;;;;;;;1.50;1.30;;;15.00;56.50;;;;;;5009055;28;20208;-55
2021/01/04 02:50:33;;;;;;;1.10;1.00;;;15.00;56.50;;;;;;4999926;28;20187;-55
2021/01/04 02:53:38;;;;;;;1.40;1.20;;;15.00;56.50;;;;;;5011404;28;20541;-55
2021/01/04 02:56:32;;;;;;;1.73;1.40;;;15.00;56.60;;;;;;4983099;28;20663;-55
2021/01/04 02:58:59;;;;;;;1.50;1.20;;;15.00;56.60;;;;;;5009000;28;20609;-55
2021/01/04 03:01:32;;;;;;;1.53;1.27;;;15.00;56.60;;;;;;4998740;28;20219;-55
2021/01/04 03:03:58;;;;;;;1.47;1.10;;;15.00;56.60;;;;;;5000757;28;20248;-55
2021/01/04 03:06:45;;;;;;;1.30;1.20;;;15.00;56.60;;;;;;5001034;28;20198;-55
2021/01/04 03:09:12;;;;;;;1.40;1.23;;;15.00;56.60;;;;;;5006476;28;20564;-55
2021/01/04 03:11:41;;;;;;;1.50;1.20;;;15.00;56.60;;;;;;5000400;28;20211;-55
2021/01/04 03:14:24;;;;;;;1.30;1.20;;;15.00;56.50;;;;;;5009894;28;20218;-55
2021/01/04 03:17:07;;;;;;;1.40;1.30;;;15.00;56.50;;;;;;4993425;28;20669;-55
2021/01/04 03:19:39;;;;;;;0.80;0.80;;;15.00;56.50;;;;;;5006725;28;20200;-55
2021/01/04 03:22:10;;;;;;;1.27;1.13;;;15.00;56.50;;;;;;5002974;28;20287;-55
2021/01/04 03:24:37;;;;;;;1.20;1.03;;;15.00;56.50;;;;;;5006418;28;20244;-55
2021/01/04 03:27:10;;;;;;;1.50;1.30;;;15.00;56.50;;;;;;5002559;28;20208;-55
2021/01/04 03:29:36;;;;;;;1.33;1.23;;;15.00;56.60;;;;;;5009991;28;20212;-55
2021/01/04 03:32:03;;;;;;;1.43;1.33;;;15.00;56.50;;;;;;4999204;28;20823;-55
2021/01/04 03:34:30;;;;;;;1.27;1.17;;;15.00;56.50;;;;;;5010308;28;20202;-55
2021/01/04 03:36:56;;;;;;;1.50;1.40;;;15.00;56.50;;;;;;4999325;28;20555;-55
2021/01/04 03:39:28;;;;;;;1.30;1.20;;;15.00;56.50;;;;;;5008340;28;20208;-55
2021/01/04 03:41:59;;;;;;;1.20;1.00;;;15.00;56.50;;;;;;4999676;28;20219;-55
2021/01/04 03:44:28;;;;;;;1.47;1.10;;;15.00;56.50;;;;;;5008111;28;21344;-55
2021/01/04 03:46:56;;;;;;;1.20;0.93;;;15.00;56.50;;;;;;4999961;28;20199;-55
2021/01/04 03:49:23;;;;;;;1.10;1.00;;;15.00;56.50;;;;;;5009129;28;20212;-55
2021/01/04 03:51:58;;;;;;;1.17;1.07;;;15.00;56.50;;;;;;4999438;28;20188;-55
2021/01/04 03:54:25;;;;;;;1.13;1.00;;;15.00;56.50;;;;;;5010745;28;20702;-55
2021/01/04 03:56:55;;;;;;;0.93;0.93;;;15.00;56.40;;;;;;5004547;28;20203;-55
2021/01/04 03:59:22;;;;;;;1.17;1.07;;;14.90;56.40;;;;;;5006845;28;20215;-55
2021/01/04 04:01:50;;;;;;;1.30;1.20;;;15.00;56.50;;;;;;5005742;28;20201;-55
2021/01/04 04:04:20;;;;;;;1.10;1.00;;;14.90;56.40;;;;;;5001603;28;20235;-55
2021/01/04 04:06:47;;;;;;;1.00;0.90;;;14.90;56.40;;;;;;5003952;28;20212;-55
2021/01/04 04:09:16;;;;;;;0.93;0.90;;;15.00;56.60;;;;;;5001111;28;20285;-55
2021/01/04 04:11:42;;;;;;;1.07;0.97;;;14.90;56.50;;;;;;5006562;28;20730;-55
2021/01/04 04:14:09;;;;;;;1.13;1.03;;;14.90;56.50;;;;;;5000324;28;20298;-55
2021/01/04 04:16:36;;;;;;;1.10;1.00;;;14.90;56.50;;;;;;5007372;28;20566;-55
2021/01/04 04:19:05;;;;;;;0.80;0.80;;;14.90;56.50;;;;;;5000807;28;20211;-55
2021/01/04 04:21:32;;;;;;;1.17;1.00;;;14.90;56.50;;;;;;5010378;28;20203;-55
2021/01/04 04:23:59;;;;;;;1.13;0.97;;;15.00;56.60;;;;;;4982372;28;20195;-55
2021/01/04 04:26:28;;;;;;;1.13;1.03;;;14.90;56.50;;;;;;5005110;28;20207;-55
2021/01/04 04:28:54;;;;;;;0.90;0.80;;;14.90;56.50;;;;;;5001729;28;20208;-55
2021/01/04 04:31:22;;;;;;;1.00;0.90;;;14.90;56.50;;;;;;5006695;28;20274;-55
2021/01/04 04:33:49;;;;;;;1.10;1.00;;;14.90;56.50;;;;;;5000757;28;20711;-55
2021/01/04 04:36:23;;;;;;;1.30;0.80;;;14.90;56.50;;;;;;5008206;28;20779;-55
2021/01/04 04:38:52;;;;;;;1.00;0.90;;;14.90;56.50;;;;;;4998763;28;20203;-54
2021/01/04 04:41:29;;;;;;;1.50;1.07;;;14.90;56.50;;;;;;5008127;28;20211;-54
2021/01/04 04:44:05;;;;;;;0.87;0.87;;;14.90;56.60;;;;;;5001901;28;20203;-54
2021/01/04 04:46:46;;;;;;;1.33;1.23;;;14.90;56.60;;;;;;5006802;28;20294;-54
2021/01/04 04:50:13;;;;;;;1.00;0.80;;;14.90;56.60;;;;;;4996448;28;20215;-54
2021/01/04 04:53:08;;;;;;;2.10;0.97;;;14.90;56.70;;;;;;4944010;28;20849;-54
2021/01/04 04:55:53;;;;;;;1.00;0.90;;;14.90;57.50;;;;;;4973924;28;20216;-54
2021/01/04 04:58:32;;;;;;;0.73;0.73;;;14.90;56.90;;;;;;5008568;28;20203;-54
2021/01/04 05:01:23;;;;;;;1.63;0.90;;;14.90;56.80;;;;;;4998565;28;20237;-54
2021/01/04 05:04:15;;;;;;;1.73;1.13;;;14.90;57.40;;;;;;5007682;28;20227;-54
2021/01/04 05:07:04;;;;;;;1.00;0.90;;;14.90;56.70;;;;;;4991672;28;20211;-54
2021/01/04 05:09:46;;;;;;;1.13;0.90;;;14.90;56.70;;;;;;5007883;28;20257;-54
2021/01/04 05:12:16;;;;;;;1.53;1.20;;;14.90;56.70;;;;;;4999248;28;20537;-54
2021/01/04 05:14:58;;;;;;;1.27;1.07;;;14.90;56.70;;;;;;5007146;28;20208;-54
2021/01/04 05:17:46;;;;;;;0.90;0.70;;;14.90;56.70;;;;;;4999026;28;20299;-54
2021/01/04 05:20:45;;;;;;;0.80;0.80;;;14.90;56.60;;;;;;4968895;28;20211;-54
2021/01/04 05:23:33;;;;;;;0.93;0.93;;;14.90;56.60;;;;;;5003973;28;20211;-54
2021/01/04 05:26:22;;;;;;;0.93;0.80;;;14.90;56.60;;;;;;5000640;28;20226;-54
2021/01/04 05:29:25;;;;;;;0.80;0.80;;;14.90;56.60;;;;;;5002561;28;20195;-54
2021/01/04 05:32:12;;;;;;;2.10;1.00;;;14.90;56.60;;;;;;4991570;28;20675;-54
2021/01/04 05:34:51;;;;;;;1.00;0.90;;;14.90;56.60;;;;;;5009395;28;20207;-54
2021/01/04 05:37:53;;;;;;;1.10;0.80;;;14.90;56.60;;;;;;4999364;28;20233;-54
2021/01/04 05:40:27;;;;;;;0.80;0.80;;;14.90;56.60;;;;;;4912900;29;20207;-54
2021/01/04 05:43:12;;;;;;;1.20;1.00;;;14.90;56.60;;;;;;4986682;28;20215;-54
2021/01/04 05:46:07;;;;;;;1.00;0.90;;;14.90;56.50;;;;;;5009695;28;20248;-54
2021/01/04 05:48:40;;;;;;;1.13;0.90;;;14.90;56.60;;;;;;5005195;28;20239;-54
2021/01/04 05:51:29;;;;;;;1.20;1.00;;;14.90;56.50;;;;;;5011905;28;20195;-54
2021/01/04 05:53:56;;;;;;;1.03;0.70;;;14.90;56.40;;;;;;4999785;28;20207;-54
2021/01/04 05:56:27;;;;;;;0.80;0.77;;;14.90;56.50;;;;;;5010166;28;20200;-54
2021/01/04 05:59:10;;;;;;;1.63;0.90;;;14.90;56.60;;;;;;5000814;28;20578;-54
2021/01/04 06:01:38;;;;;;;0.93;0.70;;;15.00;56.70;;;;;;5005938;28;20219;-55
2021/01/04 06:04:27;;;;;;;2.83;0.90;;;15.00;56.60;;;;;;5004623;28;20223;-54
2021/01/04 06:07:05;;;;;;;2.07;1.00;;;15.00;56.70;;;;;;5006137;28;20208;-54
2021/01/04 06:09:32;;;;;;;1.80;0.77;;;15.00;56.60;;;;;;5003580;28;20192;-54
2021/01/04 06:12:22;;;;;;;1.37;0.90;;;14.90;56.50;;;;;;5012967;28;20211;-54
2021/01/04 06:14:57;;;;;;;0.93;0.80;;;14.90;56.50;;;;;;5000011;28;20211;-54
2021/01/04 06:17:37;;;;;;;1.57;0.97;;;14.90;56.50;;;;;;5010954;28;20203;-55
2021/01/04 06:20:38;;;;;;;3.53;0.93;;;14.90;56.40;;;;;;5000650;28;20324;-54
2021/01/04 06:23:14;;;;;;;1.00;0.90;;;14.90;56.50;;;;;;4999460;28;20210;-54
2021/01/04 06:25:42;;;;;;;1.00;0.90;;;14.90;56.40;;;;;;5005670;28;20199;-55
2021/01/04 06:28:08;;;;;;;0.90;0.90;;;14.90;56.40;;;;;;5012576;28;20211;-55
2021/01/04 06:30:38;;;;;;;1.37;1.10;;;14.90;56.40;;;;;;5006916;28;20207;-54
2021/01/04 06:33:10;;;;;;;1.00;0.80;;;14.90;56.40;;;;;;5011960;28;20841;-55
2021/01/04 06:35:37;;;;;;;2.17;1.00;;;14.90;56.40;;;;;;5002990;28;20200;-55
2021/01/04 06:38:22;;;;;;;1.00;0.90;;;14.90;56.30;;;;;;5008861;28;20200;-54
2021/01/04 06:40:48;;;;;;;0.83;0.83;;;14.90;56.30;;;;;;5007232;28;20227;-54
2021/01/04 06:43:33;;;;;;;1.47;0.80;;;14.90;56.30;;;;;;5008793;28;20222;-54
2021/01/04 06:46:26;;;;;;;1.10;1.00;;;14.90;56.20;;;;;;5002725;28;20655;-54
2021/01/04 06:48:57;;;;;;;2.10;0.90;;;15.00;56.30;;;;;;5011003;28;20573;-54
2021/01/04 06:51:45;;;;;;;0.93;0.90;;;14.90;56.20;;;;;;4998195;28;20861;-54
2021/01/04 06:54:34;;;;;;;1.93;1.10;;;14.90;56.20;;;;;;5009355;28;20194;-54
2021/01/04 06:57:31;;;;;;;4.27;1.80;;;14.90;56.30;;;;;;5006305;28;20211;-54
2021/01/04 07:00:25;;;;;;;5.87;2.20;;;14.90;56.30;;;;;;5003930;28;20211;-54
2021/01/04 07:03:22;;;;;;;3.80;2.00;;;14.90;56.40;;;;;;5007676;28;20296;-54
2021/01/04 07:06:06;;;;;;;6.63;1.73;;;14.90;56.30;;;;;;4999998;28;20207;-55
2021/01/04 07:08:51;;;;;;;5.67;2.10;;;14.90;56.40;;;;;;5008481;28;20191;-55
2021/01/04 07:11:41;;;;;;;4.17;1.80;;;14.90;56.40;;;;;;5002695;28;20203;-54
2021/01/04 07:14:31;;;;;;;6.47;1.67;;;14.90;56.40;;;;;;5010008;28;20195;-54
2021/01/04 07:17:09;;;;;;;3.53;1.73;;;14.90;56.20;;;;;;4975324;28;20231;-54
2021/01/04 07:20:06;;;;;;;3.73;2.00;;;14.90;56.20;;;;;;5008487;28;20708;-54
2021/01/04 07:22:50;;;;;;;3.37;1.50;;;14.90;56.10;;;;;;5002989;28;20227;-54
2021/01/04 07:25:37;;;;;;;2.90;1.53;;;14.90;56.10;;;;;;5010577;28;20238;-54
2021/01/04 07:28:15;;;;;;;3.87;1.37;;;14.90;56.10;;;;;;5007865;28;20218;-54
2021/01/04 07:31:02;;;;;;;15.77;2.20;;;14.90;56.10;;;;;;5013690;28;20190;-54
2021/01/04 07:33:54;;;;;;;11.23;1.63;;;15.00;57.60;;;;;;4971993;28;20199;-53
2021/01/04 07:36:55;;;;;;;12.90;1.57;;;15.00;57.80;;;;;;4986845;28;20209;-53
2021/01/04 07:39:36;;;;;;;10.87;1.70;;;15.00;58.30;;;;;;4964747;28;20196;-54
2021/01/04 07:42:44;;;;;;;9.20;1.80;;;15.00;57.90;;;;;;4959221;28;20228;-54
2021/01/04 07:45:18;;;;;;;2.83;1.70;;;15.00;57.70;;;;;;4989144;28;20262;-54
2021/01/04 07:48:32;;;;;;;4.63;1.67;;;15.00;57.40;;;;;;4979744;28;20207;-54
2021/01/04 07:51:18;;;;;;;5.40;1.47;;;15.00;57.20;;;;;;4984533;28;20215;-55
2021/01/04 07:54:12;;;;;;;40.23;8.00;;;15.00;57.10;;;;;;4980421;28;20204;-55
2021/01/04 07:57:12;;;;;;;26.93;6.77;;;15.00;59.10;;;;;;4983785;28;20219;-54
2021/01/04 08:00:10;;;;;;;30.10;5.90;;;15.40;58.50;;;;;;4988423;28;20217;-60
2021/01/04 08:02:55;;;;;;;18.93;5.40;;;16.10;58.00;;;;;;4979868;28;20358;-60
2021/01/04 08:05:33;;;;;;;18.77;4.37;;;16.50;57.70;;;;;;4993989;28;20196;-58
2021/01/04 08:08:29;;;;;;;15.87;4.73;;;17.00;56.90;;;;;;4987577;28;20641;-59
2021/01/04 08:11:37;;;;;;;11.50;4.40;;;17.40;56.10;;;;;;4989342;28;20204;-57
2021/01/04 08:14:40;;;;;;;13.70;4.30;;;17.70;55.30;;;;;;4965727;28;20227;-59
2021/01/04 08:17:35;;;;;;;8.87;3.00;;;18.10;54.50;;;;;;4986719;28;20616;-61
2021/01/04 08:20:08;;;;;;;13.20;3.27;;;18.30;54.00;;;;;;4987609;28;20207;-58
2021/01/04 08:22:48;;;;;;;8.00;3.33;;;18.50;53.40;;;;;;4989904;28;20230;-58
2021/01/04 08:25:48;;;;;;;6.80;2.90;;;18.60;53.00;;;;;;4981947;28;20204;-59
2021/01/04 08:28:34;;;;;;;4.87;2.40;;;18.90;52.90;;;;;;4983627;28;20212;-58
2021/01/04 08:31:13;;;;;;;8.37;2.50;;;19.00;52.50;;;;;;4992833;28;20192;-58
2021/01/04 08:34:19;;;;;;;3.97;2.20;;;19.20;52.10;;;;;;4962024;28;20196;-58
2021/01/04 08:36:52;;;;;;;6.77;2.33;;;19.20;51.90;;;;;;4953597;28;20660;-62
2021/01/04 08:39:26;;;;;;;6.83;2.30;;;19.30;52.00;;;;;;4965126;28;20267;-59
2021/01/04 08:42:04;;;;;;;3.43;2.10;;;19.60;51.60;;;;;;4987718;28;20227;-59
2021/01/04 08:44:35;;;;;;;5.63;2.23;;;19.70;51.10;;;;;;4981114;28;20212;-59
2021/01/04 08:47:51;;;;;;;4.00;2.27;;;19.80;50.90;;;;;;4983417;28;20207;-60
2021/01/04 08:50:39;;;;;;;4.77;1.90;;;19.90;51.10;;;;;;4989083;28;20195;-61
2021/01/04 08:53:19;;;;;;;7.77;1.90;;;20.00;50.70;;;;;;4992844;28;20640;-59
2021/01/04 08:55:47;;;;;;;4.33;2.07;;;20.10;50.40;;;;;;4983834;28;20196;-59
2021/01/04 08:58:19;;;;;;;5.77;1.80;;;20.20;49.80;;;;;;4989910;28;20205;-61
2021/01/04 09:01:00;;;;;;;3.43;1.73;;;20.30;49.80;;;;;;4984817;28;20206;-59
2021/01/04 09:03:31;;;;;;;5.63;1.80;;;20.40;49.60;;;;;;4987296;28;20224;-61
2021/01/04 09:06:22;;;;;;;2.00;1.40;;;20.50;49.50;;;;;;4962270;28;20734;-58
2021/01/04 09:08:52;;;;;;;2.47;1.60;;;20.60;49.70;;;;;;4983548;28;20207;-59
2021/01/04 09:11:23;;;;;;;3.10;1.70;;;20.80;49.50;;;;;;4980999;28;20211;-58
2021/01/04 09:13:50;;;;;;;2.30;1.30;;;20.90;49.40;;;;;;4992442;28;20214;-58
2021/01/04 09:16:30;;;;;;;2.47;1.40;;;21.00;48.90;;;;;;4977725;28;20654;-59
2021/01/04 09:19:17;;;;;;;2.70;1.27;;;21.30;48.30;;;;;;4986949;28;20224;-58
2021/01/04 09:21:45;;;;;;;5.80;1.50;;;21.50;48.10;;;;;;4978138;28;20876;-60
2021/01/04 09:24:34;;;;;;;2.17;1.40;;;21.60;47.90;;;;;;4988468;28;20209;-59
2021/01/04 09:27:27;;;;;;;2.47;1.43;;;21.70;47.70;;;;;;4983516;28;20250;-61
2021/01/04 09:30:02;;;;;;;3.23;1.80;;;21.90;47.20;;;;;;4965366;28;20208;-59
2021/01/04 09:32:37;;;;;;;2.60;1.47;;;22.00;47.20;;;;;;4974924;28;20215;-61
2021/01/04 09:35:25;;;;;;;2.87;1.73;;;22.10;47.00;;;;;;4985145;28;20214;-58
2021/01/04 09:38:25;;;;;;;2.30;1.37;;;22.20;46.90;;;;;;4980180;28;20595;-58
2021/01/04 09:40:54;;;;;;;1.97;1.47;;;22.30;46.50;;;;;;4958456;28;20669;-57
2021/01/04 09:43:27;;;;;;;3.33;1.43;;;22.40;46.40;;;;;;4982208;28;20214;-57
2021/01/04 09:46:14;;;;;;;1.97;1.23;;;22.60;46.10;;;;;;4986583;28;20212;-59
2021/01/04 09:48:59;;;;;;;2.60;1.10;;;22.70;45.80;;;;;;4976238;28;20219;-59
2021/01/04 09:51:35;;;;;;;2.10;1.40;;;22.90;45.50;;;;;;4986267;28;20571;-57
2021/01/04 09:54:05;;;;;;;4.83;1.10;;;22.90;45.50;;;;;;4978030;28;20270;-59
2021/01/04 09:56:36;;;;;;;4.47;1.30;;;23.00;46.10;;;;;;4989767;28;20201;-60
2021/01/04 09:59:20;;;;;;;4.53;1.27;;;23.00;45.30;;;;;;4983107;28;20214;-60
2021/01/04 10:01:56;;;;;;;4.37;1.47;;;23.10;45.30;;;;;;4986746;28;20227;-60
2021/01/04 10:04:29;;;;;;;1.77;1.30;;;23.10;45.20;;;;;;4985224;28;20250;-60
2021/01/04 10:06:58;;;;;;;2.20;1.13;;;23.30;45.10;;;;;;4987343;28;20222;-58
2021/01/04 10:09:31;;;;;;;3.47;1.50;;;23.30;44.90;;;;;;4978762;28;20204;-59
2021/01/04 10:12:02;;;;;;;1.40;1.00;;;23.40;44.60;;;;;;4985575;28;20218;-60
2021/01/04 10:14:29;;;;;;;1.27;1.00;;;23.60;44.70;;;;;;4976364;28;20213;-60
2021/01/04 10:16:57;;;;;;;2.47;1.47;;;23.50;44.70;;;;;;4988159;28;20208;-60
2021/01/04 10:19:34;;;;;;;2.37;1.30;;;23.50;44.60;;;;;;4979219;28;20220;-62
2021/01/04 10:22:21;;;;;;;3.87;1.20;;;23.60;44.60;;;;;;4992552;28;20203;-58
2021/01/04 10:24:58;;;;;;;2.90;1.23;;;23.70;44.40;;;;;;4974720;28;20189;-60
2021/01/04 10:27:28;;;;;;;2.97;1.50;;;23.70;44.30;;;;;;4972437;28;20205;-60
2021/01/04 10:30:21;;;;;;;1.60;1.20;;;23.70;44.40;;;;;;4988831;28;20211;-61
2021/01/04 10:32:48;;;;;;;1.53;1.17;;;23.80;44.30;;;;;;4991724;28;20259;-61
2021/01/04 10:35:20;;;;;;;1.63;1.27;;;23.80;44.30;;;;;;4988040;28;20214;-60
2021/01/04 10:38:12;;;;;;;2.07;1.30;;;23.90;44.20;;;;;;4993126;28;20207;-60
2021/01/04 10:40:48;;;;;;;2.57;1.40;;;24.00;44.30;;;;;;4985535;28;20675;-61
2021/01/04 10:43:21;;;;;;;1.83;1.20;;;24.10;44.10;;;;;;4992562;28;20271;-59
2021/01/04 10:46:36;;;;;;;1.83;1.17;;;24.00;44.10;;;;;;4980528;28;20212;-61
2021/01/04 10:49:09;;;;;;;2.97;1.40;;;24.00;44.00;;;;;;4989453;28;20208;-60
2021/01/04 10:51:39;;;;;;;2.40;1.17;;;24.20;44.00;;;;;;4995023;28;20646;-59
2021/01/04 10:54:18;;;;;;;1.83;1.20;;;24.20;43.90;;;;;;4991937;28;20203;-58
2021/01/04 10:57:01;;;;;;;1.43;1.27;;;24.30;43.90;;;;;;4984095;28;20236;-61
2021/01/04 10:59:35;;;;;;;4.50;1.33;;;24.30;43.80;;;;;;4986249;28;20271;-62
2021/01/04 11:02:01;;;;;;;3.87;1.57;;;24.30;43.70;;;;;;4986924;28;20700;-60
2021/01/04 11:04:28;;;;;;;2.23;1.30;;;24.30;43.50;;;;;;4987506;28;20374;-60
2021/01/04 11:07:06;;;;;;;3.13;1.50;;;24.40;43.60;;;;;;4978865;28;20203;-60
2021/01/04 11:09:40;;;;;;;3.90;1.60;;;24.20;43.00;;;;;;4979917;28;20232;-60
2021/01/04 11:12:20;;;;;;;4.10;1.43;;;23.60;44.00;;;;;;4983950;28;20208;-60
2021/01/04 11:15:01;;;;;;;1.87;1.50;;;23.10;45.30;;;;;;4993551;28;20211;-59
2021/01/04 11:17:34;;;;;;;4.70;1.40;;;22.60;46.70;;;;;;4986665;28;20263;-59
2021/01/04 11:20:17;;;;;;;1.83;1.33;;;22.40;46.40;;;;;;4995065;28;20573;-59
2021/01/04 11:22:43;;;;;;;1.50;1.40;;;22.20;46.90;;;;;;4991897;28;20920;-59
2021/01/04 11:25:12;;;;;;;1.67;1.20;;;21.90;46.90;;;;;;5000540;28;20193;-58
2021/01/04 11:27:39;;;;;;;2.17;1.30;;;21.80;47.30;;;;;;4979243;28;20199;-59
2021/01/04 11:30:07;;;;;;;4.77;1.67;;;21.70;47.50;;;;;;4973897;28;20637;-58
2021/01/04 11:32:33;;;;;;;1.67;1.50;;;21.60;47.70;;;;;;4980776;28;20212;-59
2021/01/04 11:35:00;;;;;;;1.80;1.13;;;21.40;48.30;;;;;;4995371;28;20199;-59
2021/01/04 11:37:34;;;;;;;2.33;1.50;;;21.40;47.90;;;;;;4987440;28;20216;-58
2021/01/04 11:40:00;;;;;;;1.33;1.10;;;21.20;48.00;;;;;;4993883;28;20205;-59
2021/01/04 11:42:26;;;;;;;1.60;1.20;;;21.10;48.20;;;;;;4989384;28;20223;-58
2021/01/04 11:44:53;;;;;;;4.23;1.53;;;21.00;48.20;;;;;;4993444;28;20205;-59
2021/01/04 11:47:20;;;;;;;4.40;1.20;;;20.90;48.30;;;;;;4984441;28;20216;-58
2021/01/04 11:49:47;;;;;;;1.77;1.50;;;20.90;48.60;;;;;;4983309;28;20210;-59
2021/01/04 11:52:13;;;;;;;1.60;1.40;;;20.80;48.60;;;;;;4980562;28;20204;-59
2021/01/04 11:54:41;;;;;;;1.50;1.30;;;20.70;48.70;;;;;;4990583;28;20704;-58
2021/01/04 11:57:14;;;;;;;2.10;1.40;;;20.60;48.80;;;;;;4986529;28;20215;-58
2021/01/04 11:59:42;;;;;;;2.10;1.40;;;20.50;48.90;;;;;;4993303;28;20204;-59
2021/01/04 12:02:10;;;;;;;2.23;1.20;;;20.50;49.10;;;;;;4969966;28;20780;-60
2021/01/04 12:04:40;;;;;;;1.90;1.17;;;20.40;49.20;;;;;;4971951;28;20240;-58
2021/01/04 12:07:08;;;;;;;2.03;1.10;;;20.30;49.30;;;;;;4993304;28;20706;-58
2021/01/04 12:09:35;;;;;;;1.63;1.13;;;20.20;49.40;;;;;;4990779;28;20192;-58
2021/01/04 12:12:07;;;;;;;1.57;1.10;;;20.20;49.50;;;;;;4986957;28;20660;-60
2021/01/04 12:14:36;;;;;;;1.80;1.27;;;20.10;49.50;;;;;;4953077;28;21526;-60
2021/01/04 12:17:09;;;;;;;1.37;1.10;;;20.00;49.70;;;;;;4995358;28;20200;-59
2021/01/04 12:19:39;;;;;;;1.47;1.27;;;20.00;49.90;;;;;;4988871;28;20294;-58
2021/01/04 12:22:11;;;;;;;1.27;1.00;;;19.90;49.90;;;;;;4989900;28;20239;-60
2021/01/04 12:24:39;;;;;;;1.37;1.17;;;19.90;49.90;;;;;;4985693;28;20223;-59
2021/01/04 12:27:09;;;;;;;1.63;1.30;;;19.80;50.00;;;;;;4984131;28;20697;-55
2021/01/04 12:29:36;;;;;;;1.20;1.10;;;19.80;50.80;;;;;;4976199;28;20231;-55
2021/01/04 12:32:03;;;;;;;1.57;1.33;;;19.70;51.20;;;;;;4961982;28;20200;-55
2021/01/04 12:34:30;;;;;;;1.83;1.30;;;19.60;51.80;;;;;;4961284;28;20303;-55
2021/01/04 12:36:57;;;;;;;1.67;1.13;;;19.60;52.00;;;;;;4984994;28;20200;-55
2021/01/04 12:39:26;;;;;;;21.77;1.77;;;19.50;52.20;;;;;;4966788;28;21539;-54
2021/01/04 12:41:52;;;;;;;1.70;1.10;;;19.50;53.90;;;;;;4987173;28;20238;-57
2021/01/04 12:44:19;;;;;;;1.77;1.00;;;19.50;54.40;;;;;;4962155;28;20200;-54
2021/01/04 12:46:48;;;;;;;1.27;0.90;;;19.40;54.40;;;;;;4988642;28;20208;-55
2021/01/04 12:49:17;;;;;;;1.87;1.00;;;19.50;54.90;;;;;;4974495;28;20212;-55
2021/01/04 12:51:56;;;;;;;2.63;1.17;;;19.40;54.70;;;;;;4974897;28;20215;-57
2021/01/04 12:54:26;;;;;;;2.87;1.10;;;19.40;54.60;;;;;;4981239;28;20227;-57
2021/01/04 12:56:58;;;;;;;2.00;0.80;;;19.40;54.60;;;;;;4973417;28;20242;-56
2021/01/04 12:59:38;;;;;;;3.57;1.17;;;19.40;54.10;;;;;;4980449;28;20541;-58
2021/01/04 13:02:13;;;;;;;6.10;1.23;;;19.40;54.70;;;;;;4957354;28;20463;-58
2021/01/04 13:04:42;;;;;;;9.10;0.80;;;20.00;53.10;;;;;;4972563;28;20920;-59
2021/01/04 13:07:14;;;;;;;4.53;1.10;;;21.00;50.80;;;;;;4952898;28;20278;-59
2021/01/04 13:09:44;;;;;;;1.10;0.90;;;21.70;49.00;;;;;;4983607;28;20203;-58
2021/01/04 13:12:11;;;;;;;2.97;0.77;;;22.20;47.90;;;;;;4981654;28;20215;-60
2021/01/04 13:14:39;;;;;;;1.67;1.13;;;22.60;46.90;;;;;;4970147;28;20203;-59
2021/01/04 13:17:11;;;;;;;1.57;0.70;;;22.90;46.30;;;;;;4984584;28;20756;-59
2021/01/04 13:19:39;;;;;;;2.17;0.70;;;23.20;45.70;;;;;;4965662;28;20385;-59
2021/01/04 13:22:07;;;;;;;1.50;0.90;;;23.50;45.10;;;;;;4977583;28;20312;-58
2021/01/04 13:24:37;;;;;;;2.60;1.07;;;23.80;44.70;;;;;;4969077;28;20715;-59
2021/01/04 13:27:07;;;;;;;1.67;0.73;;;23.90;44.40;;;;;;4966600;28;20629;-60
2021/01/04 13:29:42;;;;;;;2.10;0.90;;;24.10;44.20;;;;;;4969490;28;20231;-57
